Wetterdaten: Woche 07.10.19 - 13.10.19 (KW41)
Datum Zeit Temp. Aussen Temp. o. S. Temp +5cm Feuchte Auss Luftdruck Regen Sonnenschein Regendauer Solar Windben Empfang
07.10.2019 00:00 8,4 C 7,8 C 7,2 C 99 % 1013,4 hPa 0,0 l/m 0,00 h 0,00 h 0 W/m 1,7 km/h (1 Bft) 98,82 %
07.10.2019 01:00 8,5 C 7,4 C 7,2 C 99 % 1014,0 hPa 0,0 l/m 0,00 h 0,20 h 0 W/m 1,8 km/h (1 Bft) 95,44 %
07.10.2019 02:00 8,4 C 7,2 C 7,2 C 99 % 1015,1 hPa 0,6 l/m 0,00 h 0,23 h 0 W/m 4,8 km/h (1 Bft) 97,51 %
07.10.2019 03:00 8,3 C 7,2 C 7,2 C 99 % 1015,8 hPa 0,0 l/m 0,00 h 0,00 h 0 W/m 4,0 km/h (1 Bft) 98,43 %
07.10.2019 04:00 8,2 C 7,2 C 7,2 C 99 % 1015,5 hPa 0,0 l/m 0,00 h 0,00 h 0 W/m 2,1 km/h (1 Bft) 97,08 %
07.10.2019 05:00 8,2 C 7,2 C 7,2 C 99 % 1015,9 hPa 0,0 l/m 0,00 h 0,00 h 0 W/m 0,5 km/h (0 Bft) 95,87 %
07.10.2019 06:00 8,2 C 7,2 C 7,2 C 99 % 1016,8 hPa 0,0 l/m 0,00 h 0,00 h 0 W/m 1,4 km/h (1 Bft) 97,13 %
07.10.2019 07:00 8,2 C 7,2 C 7,2 C 100 % 1016,9 hPa 0,0 l/m 0,00 h 0,00 h 0 W/m 1,3 km/h (1 Bft) 96,45 %
07.10.2019 08:00 8,2 C 7,7 C 7,2 C 100 % 1017,5 hPa 0,0 l/m 0,00 h 0,00 h 14 W/m 6,6 km/h (2 Bft) 96,41 %
07.10.2019 09:00 8,5 C 8,2 C 7,6 C 100 % 1018,2 hPa 0,0 l/m 0,00 h 0,00 h 44 W/m 13,2 km/h (3 Bft) 96,00 %
07.10.2019 10:00 9,1 C 8,9 C 8,1 C 99 % 1018,8 hPa 0,0 l/m 0,00 h 0,00 h 91 W/m 16,5 km/h (3 Bft) 98,93 %
07.10.2019 11:00 10,2 C 10,5 C 9,3 C 96 % 1018,7 hPa 0,0 l/m 0,10 h 0,00 h 183 W/m 18,8 km/h (3 Bft) 96,51 %
07.10.2019 12:00 11,3 C 12,8 C 10,3 C 92 % 1018,7 hPa 0,0 l/m 0,43 h 0,00 h 259 W/m 19,5 km/h (3 Bft) 97,90 %
07.10.2019 13:00 12,8 C 15,0 C 12,6 C 86 % 1018,3 hPa 0,0 l/m 0,83 h 0,00 h 348 W/m 19,8 km/h (4 Bft) 96,37 %
07.10.2019 14:00 13,4 C 13,8 C 12,5 C 84 % 1018,1 hPa 0,2 l/m 0,10 h 0,00 h 204 W/m 18,0 km/h (3 Bft) 98,50 %
07.10.2019 15:00 13,4 C 13,9 C 12,6 C 84 % 1017,6 hPa 0,0 l/m 0,23 h 0,00 h 197 W/m 19,3 km/h (3 Bft) 98,51 %
07.10.2019 16:00 13,4 C 13,1 C 12,1 C 84 % 1017,3 hPa 0,0 l/m 0,00 h 0,00 h 103 W/m 16,2 km/h (3 Bft) 95,18 %
07.10.2019 17:00 13,0 C 12,3 C 11,8 C 85 % 1017,0 hPa 0,0 l/m 0,00 h 0,00 h 58 W/m 17,5 km/h (3 Bft) 99,43 %
07.10.2019 18:00 12,5 C 11,7 C 11,1 C 87 % 1016,8 hPa 0,0 l/m 0,00 h 0,00 h 20 W/m 17,9 km/h (3 Bft) 97,57 %
07.10.2019 19:00 12,1 C 10,6 C 10,1 C 90 % 1016,5 hPa 0,0 l/m 0,00 h 0,07 h 0 W/m 13,2 km/h (3 Bft) 95,59 %
07.10.2019 20:00 11,7 C 10,0 C 9,8 C 93 % 1016,4 hPa 0,0 l/m 0,00 h 0,00 h 0 W/m 9,9 km/h (2 Bft) 99,15 %
07.10.2019 21:00 11,5 C 10,6 C 10,0 C 95 % 1016,0 hPa 0,0 l/m 0,00 h 0,00 h 0 W/m 3,0 km/h (1 Bft) 98,83 %
07.10.2019 22:00 11,5 C 10,7 C 10,5 C 96 % 1015,6 hPa 0,0 l/m 0,00 h 0,00 h 0 W/m 7,6 km/h (2 Bft) 98,58 %
07.10.2019 23:00 11,6 C 11,1 C 10,6 C 96 % 1014,7 hPa 0,0 l/m 0,00 h 0,00 h 0 W/m 11,3 km/h (2 Bft) 97,08 %
08.10.2019 00:00 11,7 C 11,5 C 10,9 C 95 % 1014,0 hPa 0,0 l/m 0,00 h 0,03 h 0 W/m 12,4 km/h (3 Bft) 96,68 %
08.10.2019 01:00 12,0 C 10,7 C 10,0 C 94 % 1013,3 hPa 0,0 l/m 0,00 h 0,33 h 0 W/m 11,0 km/h (2 Bft) 98,08 %
08.10.2019 02:00 12,0 C 10,8 C 10,1 C 95 % 1012,5 hPa 0,0 l/m 0,00 h 0,23 h 0 W/m 11,9 km/h (2 Bft) 96,07 %
08.10.2019 03:00 12,1 C 10,7 C 10,1 C 96 % 1011,5 hPa 0,6 l/m 0,00 h 0,53 h 0 W/m 16,9 km/h (3 Bft) 97,16 %
08.10.2019 04:00 11,8 C 10,6 C 10,0 C 97 % 1010,7 hPa 3,0 l/m 0,00 h 0,77 h 0 W/m 13,7 km/h (3 Bft) 99,64 %
08.10.2019 05:00 11,7 C 10,6 C 10,0 C 98 % 1010,0 hPa 1,4 l/m 0,00 h 0,77 h 0 W/m 16,7 km/h (3 Bft) 95,92 %
08.10.2019 06:00 11,7 C 10,6 C 10,4 C 99 % 1009,2 hPa 0,2 l/m 0,00 h 0,17 h 0 W/m 19,0 km/h (3 Bft) 96,93 %
08.10.2019 07:00 11,8 C 10,8 C 10,6 C 99 % 1008,9 hPa 0,4 l/m 0,00 h 0,13 h 0 W/m 22,0 km/h (4 Bft) 98,29 %
08.10.2019 08:00 12,0 C 11,1 C 10,6 C 100 % 1008,7 hPa 0,4 l/m 0,00 h 0,27 h 12 W/m 15,0 km/h (3 Bft) 97,57 %
08.10.2019 09:00 12,3 C 11,6 C 11,1 C 100 % 1008,6 hPa 0,6 l/m 0,00 h 0,75 h 45 W/m 15,1 km/h (3 Bft) 97,35 %
08.10.2019 10:00 12,6 C 11,8 C 11,3 C 100 % 1008,7 hPa 0,6 l/m 0,00 h 0,77 h 47 W/m 9,8 km/h (2 Bft) 97,76 %
08.10.2019 11:00 13,2 C 12,5 C 12,1 C 100 % 1008,5 hPa 0,4 l/m 0,00 h 0,40 h 101 W/m 8,9 km/h (2 Bft) 98,24 %
08.10.2019 12:00 13,6 C 13,0 C 12,3 C 100 % 1008,2 hPa 0,0 l/m 0,00 h 0,00 h 113 W/m 10,2 km/h (2 Bft) 95,11 %
08.10.2019 13:00 14,1 C 13,8 C 12,9 C 100 % 1007,9 hPa 0,0 l/m 0,00 h 0,03 h 153 W/m 12,1 km/h (2 Bft) 97,77 %
08.10.2019 14:00 14,5 C 15,6 C 13,8 C 100 % 1007,5 hPa 0,0 l/m 0,13 h 0,00 h 184 W/m 9,4 km/h (2 Bft) 98,72 %
08.10.2019 15:00 15,2 C 16,5 C 14,5 C 99 % 1007,1 hPa 0,0 l/m 0,27 h 0,00 h 195 W/m 13,2 km/h (3 Bft) 95,02 %
08.10.2019 16:00 15,5 C 15,3 C 14,2 C 92 % 1007,0 hPa 0,0 l/m 0,00 h 0,00 h 81 W/m 14,1 km/h (3 Bft) 99,36 %
08.10.2019 17:00 15,2 C 14,5 C 13,8 C 92 % 1006,6 hPa 0,0 l/m 0,00 h 0,00 h 54 W/m 16,0 km/h (3 Bft) 97,22 %
08.10.2019 18:00 14,5 C 13,5 C 12,9 C 91 % 1006,8 hPa 0,0 l/m 0,00 h 0,03 h 11 W/m 13,4 km/h (3 Bft) 96,94 %
08.10.2019 19:00 14,2 C 13,0 C 12,5 C 94 % 1006,9 hPa 0,0 l/m 0,00 h 0,00 h 0 W/m 11,2 km/h (2 Bft) 97,65 %
08.10.2019 20:00 13,6 C 12,5 C 12,0 C 95 % 1007,1 hPa 0,0 l/m 0,00 h 0,00 h 0 W/m 9,6 km/h (2 Bft) 98,22 %
08.10.2019 21:00 13,1 C 12,2 C 11,7 C 95 % 1007,5 hPa 0,0 l/m 0,00 h 0,00 h 0 W/m 13,7 km/h (3 Bft) 96,23 %
08.10.2019 22:00 12,8 C 12,0 C 11,7 C 96 % 1007,7 hPa 0,0 l/m 0,00 h 0,00 h 0 W/m 13,6 km/h (3 Bft) 98,01 %
08.10.2019 23:00 12,6 C 11,7 C 11,1 C 96 % 1007,8 hPa 0,0 l/m 0,00 h 0,00 h 0 W/m 14,8 km/h (3 Bft) 99,36 %
09.10.2019 00:00 12,3 C 11,7 C 11,1 C 96 % 1008,1 hPa 0,0 l/m 0,00 h 0,00 h 0 W/m 15,4 km/h (3 Bft) 96,68 %
09.10.2019 01:00 12,4 C 11,7 C 11,1 C 94 % 1008,4 hPa 0,0 l/m 0,00 h 0,00 h 0 W/m 15,8 km/h (3 Bft) 97,79 %
09.10.2019 02:00 12,2 C 11,2 C 10,8 C 94 % 1008,7 hPa 0,0 l/m 0,00 h 0,00 h 0 W/m 13,8 km/h (3 Bft) 98,00 %
09.10.2019 03:00 12,0 C 11,1 C 10,6 C 94 % 1008,8 hPa 0,0 l/m 0,00 h 0,00 h 0 W/m 14,9 km/h (3 Bft) 96,87 %
09.10.2019 04:00 11,8 C 11,1 C 10,6 C 95 % 1008,9 hPa 0,0 l/m 0,00 h 0,00 h 0 W/m 16,4 km/h (3 Bft) 97,35 %
09.10.2019 05:00 11,6 C 10,7 C 10,3 C 95 % 1009,1 hPa 0,0 l/m 0,00 h 0,00 h 0 W/m 17,9 km/h (3 Bft) 97,79 %
09.10.2019 06:00 11,2 C 10,2 C 10,0 C 95 % 1009,0 hPa 0,0 l/m 0,00 h 0,00 h 0 W/m 17,4 km/h (3 Bft) 97,79 %
09.10.2019 07:00 10,9 C 10,1 C 9,5 C 96 % 1008,9 hPa 0,0 l/m 0,00 h 0,00 h 6 W/m 15,2 km/h (3 Bft) 96,73 %
09.10.2019 08:00 11,1 C 11,1 C 10,5 C 96 % 1008,6 hPa 0,0 l/m 0,00 h 0,00 h 36 W/m 17,5 km/h (3 Bft) 97,08 %
09.10.2019 09:00 11,8 C 12,0 C 11,3 C 94 % 1008,3 hPa 0,0 l/m 0,00 h 0,00 h 93 W/m 22,2 km/h (4 Bft) 98,29 %
09.10.2019 10:00 12,7 C 13,0 C 12,2 C 90 % 1008,1 hPa 0,0 l/m 0,13 h 0,00 h 152 W/m 23,3 km/h (4 Bft) 97,65 %
09.10.2019 11:00 13,4 C 13,3 C 12,6 C 87 % 1007,5 hPa 0,0 l/m 0,00 h 0,00 h 124 W/m 24,3 km/h (4 Bft) 95,87 %
09.10.2019 12:00 13,7 C 13,6 C 12,8 C 85 % 1006,9 hPa 0,0 l/m 0,03 h 0,17 h 170 W/m 26,6 km/h (4 Bft) 99,70 %
09.10.2019 13:00 14,6 C 15,0 C 13,9 C 81 % 1006,0 hPa 0,0 l/m 0,13 h 0,00 h 212 W/m 27,5 km/h (4 Bft) 97,15 %
09.10.2019 14:00 14,2 C 13,5 C 12,5 C 82 % 1005,6 hPa 0,0 l/m 0,00 h 0,40 h 141 W/m 21,9 km/h (4 Bft) 96,65 %
09.10.2019 15:00 13,1 C 11,6 C 10,7 C 87 % 1005,8 hPa 0,6 l/m 0,03 h 0,30 h 128 W/m 21,7 km/h (4 Bft) 98,06 %
09.10.2019 16:00 12,9 C 13,7 C 11,1 C 87 % 1006,0 hPa 0,0 l/m 0,70 h 0,00 h 226 W/m 21,2 km/h (4 Bft) 96,51 %
09.10.2019 17:00 13,1 C 12,6 C 10,9 C 85 % 1006,1 hPa 0,0 l/m 0,23 h 0,00 h 80 W/m 18,7 km/h (3 Bft) 96,99 %
09.10.2019 18:00 12,4 C 11,5 C 11,0 C 87 % 1006,4 hPa 0,0 l/m 0,03 h 0,00 h 21 W/m 14,1 km/h (3 Bft) 99,19 %
09.10.2019 19:00 12,1 C 11,3 C 10,9 C 87 % 1006,7 hPa 0,0 l/m 0,00 h 0,00 h 0 W/m 19,9 km/h (4 Bft) 96,10 %
09.10.2019 20:00 12,0 C 11,1 C 10,6 C 86 % 1007,0 hPa 0,0 l/m 0,00 h 0,10 h 0 W/m 20,1 km/h (4 Bft) 96,58 %
09.10.2019 21:00 11,8 C 11,0 C 10,6 C 87 % 1007,3 hPa 0,0 l/m 0,00 h 0,00 h 0 W/m 17,9 km/h (3 Bft) 99,21 %
09.10.2019 22:00 11,4 C 10,5 C 10,1 C 88 % 1007,5 hPa 0,0 l/m 0,00 h 0,00 h 0 W/m 16,4 km/h (3 Bft) 97,08 %
09.10.2019 23:00 11,0 C 10,1 C 9,8 C 89 % 1007,8 hPa 0,0 l/m 0,00 h 0,00 h 0 W/m 20,9 km/h (4 Bft) 97,35 %
10.10.2019 00:00 10,5 C 9,5 C 9,4 C 90 % 1008,0 hPa 0,0 l/m 0,00 h 0,00 h 0 W/m 21,5 km/h (4 Bft) 97,91 %
10.10.2019 01:00 10,4 C 9,6 C 9,4 C 88 % 1008,0 hPa 0,0 l/m 0,00 h 0,00 h 0 W/m 19,5 km/h (3 Bft) 96,72 %
10.10.2019 02:00 10,6 C 10,0 C 9,4 C 89 % 1008,0 hPa 0,0 l/m 0,00 h 0,00 h 0 W/m 18,1 km/h (3 Bft) 98,72 %
10.10.2019 03:00 10,8 C 10,0 C 9,5 C 90 % 1008,0 hPa 0,0 l/m 0,00 h 0,00 h 0 W/m 17,0 km/h (3 Bft) 95,80 %
10.10.2019 04:00 10,6 C 9,3 C 8,7 C 91 % 1008,2 hPa 0,2 l/m 0,00 h 0,13 h 0 W/m 10,1 km/h (2 Bft) 96,64 %
10.10.2019 05:00 10,1 C 8,7 C 8,5 C 93 % 1008,6 hPa 0,0 l/m 0,00 h 0,07 h 0 W/m 13,6 km/h (3 Bft) 99,57 %
10.10.2019 06:00 9,6 C 8,3 C 8,3 C 94 % 1009,0 hPa 0,0 l/m 0,00 h 0,00 h 0 W/m 11,8 km/h (2 Bft) 94,58 %
10.10.2019 07:00 9,6 C 8,8 C 8,5 C 95 % 1009,6 hPa 0,0 l/m 0,00 h 0,00 h 5 W/m 11,6 km/h (2 Bft) 96,44 %
10.10.2019 08:00 10,0 C 9,7 C 9,2 C 96 % 1010,4 hPa 0,0 l/m 0,00 h 0,00 h 25 W/m 14,8 km/h (3 Bft) 99,07 %
10.10.2019 09:00 10,6 C 10,8 C 10,0 C 94 % 1011,6 hPa 0,0 l/m 0,10 h 0,00 h 97 W/m 18,5 km/h (3 Bft) 97,08 %
10.10.2019 10:00 11,5 C 12,3 C 11,1 C 91 % 1012,6 hPa 0,0 l/m 0,17 h 0,00 h 152 W/m 19,3 km/h (3 Bft) 95,94 %
10.10.2019 11:00 12,6 C 14,6 C 12,3 C 87 % 1013,2 hPa 0,0 l/m 0,20 h 0,00 h 261 W/m 19,2 km/h (3 Bft) 97,93 %
10.10.2019 12:00 14,4 C 18,2 C 13,6 C 80 % 1013,6 hPa 0,0 l/m 0,77 h 0,00 h 507 W/m 22,0 km/h (4 Bft) 98,52 %
10.10.2019 13:00 15,7 C 18,3 C 14,8 C 73 % 1013,8 hPa 0,0 l/m 0,70 h 0,00 h 463 W/m 19,4 km/h (3 Bft) 97,37 %
10.10.2019 14:00 15,5 C 17,0 C 14,5 C 72 % 1014,2 hPa 0,0 l/m 0,37 h 0,00 h 307 W/m 17,9 km/h (3 Bft) 97,65 %
10.10.2019 15:00 15,8 C 17,2 C 14,6 C 70 % 1014,3 hPa 0,0 l/m 0,47 h 0,00 h 254 W/m 16,5 km/h (3 Bft) 96,15 %
10.10.2019 16:00 16,2 C 18,4 C 15,1 C 67 % 1014,5 hPa 0,0 l/m 0,90 h 0,00 h 314 W/m 18,2 km/h (3 Bft) 98,36 %
10.10.2019 17:00 15,9 C 16,2 C 14,1 C 68 % 1014,7 hPa 0,0 l/m 0,63 h 0,00 h 131 W/m 17,4 km/h (3 Bft) 99,00 %
10.10.2019 18:00 14,7 C 13,4 C 12,7 C 75 % 1015,1 hPa 0,0 l/m 0,00 h 0,00 h 21 W/m 10,5 km/h (2 Bft) 94,29 %
10.10.2019 19:00 13,7 C 12,3 C 12,0 C 81 % 1015,6 hPa 0,0 l/m 0,00 h 0,00 h 0 W/m 11,0 km/h (2 Bft) 99,50 %
10.10.2019 20:00 13,0 C 11,9 C 11,5 C 84 % 1015,9 hPa 0,0 l/m 0,00 h 0,00 h 0 W/m 15,1 km/h (3 Bft) 98,01 %
10.10.2019 21:00 12,6 C 11,7 C 11,3 C 87 % 1016,1 hPa 0,0 l/m 0,00 h 0,00 h 0 W/m 18,1 km/h (3 Bft) 96,01 %
10.10.2019 22:00 12,7 C 12,2 C 11,7 C 88 % 1016,2 hPa 0,0 l/m 0,00 h 0,00 h 0 W/m 20,4 km/h (4 Bft) 99,15 %
10.10.2019 23:00 12,9 C 12,3 C 11,9 C 88 % 1016,2 hPa 0,0 l/m 0,00 h 0,00 h 0 W/m 20,4 km/h (4 Bft) 97,73 %
11.10.2019 00:00 13,4 C 12,8 C 12,2 C 84 % 1016,0 hPa 0,0 l/m 0,00 h 0,00 h 0 W/m 24,4 km/h (4 Bft) 99,78 %
11.10.2019 01:00 13,5 C 12,5 C 12,0 C 81 % 1015,8 hPa 0,0 l/m 0,00 h 0,00 h 0 W/m 23,9 km/h (4 Bft) 99,56 %
11.10.2019 02:00 12,8 C 11,7 C 11,5 C 82 % 1015,7 hPa 0,0 l/m 0,00 h 0,00 h 0 W/m 16,7 km/h (3 Bft) 96,11 %
11.10.2019 03:00 12,6 C 11,8 C 11,4 C 82 % 1015,3 hPa 0,0 l/m 0,00 h 0,00 h 0 W/m 21,3 km/h (4 Bft) 98,87 %
11.10.2019 04:00 12,7 C 12,2 C 11,7 C 82 % 1015,0 hPa 0,0 l/m 0,00 h 0,00 h 0 W/m 21,2 km/h (4 Bft) 98,15 %
11.10.2019 05:00 12,9 C 12,2 C 11,7 C 82 % 1014,7 hPa 0,0 l/m 0,00 h 0,00 h 0 W/m 19,4 km/h (3 Bft) 95,16 %
11.10.2019 06:00 13,2 C 12,4 C 12,0 C 82 % 1014,5 hPa 0,0 l/m 0,00 h 0,00 h 0 W/m 18,6 km/h (3 Bft) 99,67 %
11.10.2019 07:00 13,5 C 12,4 C 11,9 C 83 % 1014,0 hPa 0,0 l/m 0,00 h 0,27 h 0 W/m 20,6 km/h (4 Bft) 98,53 %
11.10.2019 08:00 13,9 C 13,2 C 12,7 C 82 % 1013,9 hPa 0,0 l/m 0,00 h 0,00 h 15 W/m 20,6 km/h (4 Bft) 94,36 %
11.10.2019 09:00 14,1 C 13,5 C 12,9 C 83 % 1014,1 hPa 0,0 l/m 0,00 h 0,00 h 43 W/m 17,1 km/h (3 Bft) 99,66 %
11.10.2019 10:00 14,4 C 14,1 C 13,5 C 84 % 1014,4 hPa 0,0 l/m 0,00 h 0,07 h 78 W/m 21,2 km/h (4 Bft) 98,08 %
11.10.2019 11:00 15,0 C 14,4 C 13,9 C 84 % 1014,3 hPa 0,0 l/m 0,00 h 0,03 h 69 W/m 22,1 km/h (4 Bft) 95,62 %
11.10.2019 12:00 15,3 C 14,8 C 14,2 C 85 % 1014,0 hPa 0,0 l/m 0,00 h 0,03 h 72 W/m 28,7 km/h (4 Bft) 99,04 %
11.10.2019 13:00 15,8 C 15,5 C 14,8 C 83 % 1013,5 hPa 0,0 l/m 0,00 h 0,00 h 100 W/m 31,8 km/h (5 Bft) 97,36 %
11.10.2019 14:00 16,5 C 16,3 C 15,7 C 80 % 1013,0 hPa 0,0 l/m 0,00 h 0,00 h 126 W/m 29,6 km/h (5 Bft) 96,60 %
11.10.2019 15:00 16,6 C 16,0 C 15,4 C 80 % 1012,3 hPa 0,0 l/m 0,00 h 0,07 h 80 W/m 31,0 km/h (5 Bft) 97,79 %
11.10.2019 16:00 16,5 C 15,9 C 15,4 C 80 % 1011,8 hPa 0,0 l/m 0,00 h 0,00 h 69 W/m 24,7 km/h (4 Bft) 98,13 %
11.10.2019 17:00 16,6 C 16,0 C 15,4 C 80 % 1011,4 hPa 0,0 l/m 0,00 h 0,00 h 49 W/m 26,2 km/h (4 Bft) 97,24 %
11.10.2019 18:00 16,5 C 15,6 C 15,0 C 80 % 1011,3 hPa 0,0 l/m 0,00 h 0,00 h 12 W/m 27,6 km/h (4 Bft) 96,58 %
11.10.2019 19:00 16,4 C 15,6 C 15,0 C 80 % 1011,2 hPa 0,0 l/m 0,00 h 0,00 h 0 W/m 26,7 km/h (4 Bft) 98,18 %
11.10.2019 20:00 16,6 C 15,7 C 15,1 C 80 % 1010,9 hPa 0,0 l/m 0,00 h 0,00 h 0 W/m 23,7 km/h (4 Bft) 97,87 %
11.10.2019 21:00 16,8 C 16,1 C 15,6 C 81 % 1010,6 hPa 0,0 l/m 0,00 h 0,00 h 0 W/m 31,4 km/h (5 Bft) 96,46 %
11.10.2019 22:00 17,0 C 16,1 C 15,6 C 81 % 1010,5 hPa 0,0 l/m 0,00 h 0,00 h 0 W/m 26,5 km/h (4 Bft) 98,23 %
11.10.2019 23:00 17,2 C 16,3 C 15,9 C 80 % 1010,5 hPa 0,0 l/m 0,00 h 0,00 h 0 W/m 25,5 km/h (4 Bft) 97,52 %
12.10.2019 00:00 17,6 C 16,7 C 16,1 C 79 % 1010,2 hPa 0,0 l/m 0,00 h 0,00 h 0 W/m 22,7 km/h (4 Bft) 98,00 %
12.10.2019 01:00 17,0 C 15,5 C 15,1 C 81 % 1009,6 hPa 0,0 l/m 0,00 h 0,00 h 0 W/m 18,1 km/h (3 Bft) 97,56 %
12.10.2019 02:00 16,1 C 15,0 C 14,4 C 83 % 1009,4 hPa 0,0 l/m 0,00 h 0,00 h 0 W/m 14,8 km/h (3 Bft) 97,73 %
12.10.2019 03:00 15,8 C 14,8 C 14,3 C 83 % 1009,4 hPa 0,0 l/m 0,00 h 0,00 h 0 W/m 17,3 km/h (3 Bft) 98,74 %
12.10.2019 04:00 15,2 C 13,7 C 13,2 C 84 % 1009,2 hPa 0,0 l/m 0,00 h 0,00 h 0 W/m 10,8 km/h (2 Bft) 95,43 %
12.10.2019 05:00 14,3 C 12,4 C 12,1 C 86 % 1009,0 hPa 0,0 l/m 0,00 h 0,00 h 0 W/m 6,1 km/h (2 Bft) 98,47 %
12.10.2019 06:00 13,9 C 13,8 C 13,2 C 89 % 1009,0 hPa 0,0 l/m 0,00 h 0,00 h 0 W/m 17,9 km/h (3 Bft) 99,21 %
12.10.2019 07:00 14,9 C 14,0 C 13,5 C 86 % 1009,3 hPa 0,0 l/m 0,00 h 0,00 h 4 W/m 18,7 km/h (3 Bft) 95,12 %
12.10.2019 08:00 14,7 C 13,9 C 13,3 C 86 % 1009,7 hPa 0,0 l/m 0,00 h 0,00 h 16 W/m 19,6 km/h (3 Bft) 98,56 %
12.10.2019 09:00 14,9 C 14,8 C 13,9 C 87 % 1010,1 hPa 0,0 l/m 0,10 h 0,00 h 68 W/m 23,2 km/h (4 Bft) 99,05 %
12.10.2019 10:00 16,7 C 19,8 C 16,3 C 83 % 1010,7 hPa 0,0 l/m 1,00 h 0,00 h 373 W/m 25,3 km/h (4 Bft) 94,87 %
12.10.2019 11:00 18,0 C 21,7 C 17,0 C 79 % 1011,0 hPa 0,0 l/m 1,00 h 0,00 h 498 W/m 26,8 km/h (4 Bft) 97,92 %
12.10.2019 12:00 19,3 C 22,3 C 17,8 C 74 % 1011,1 hPa 0,0 l/m 1,00 h 0,00 h 514 W/m 27,3 km/h (4 Bft) 98,02 %
12.10.2019 13:00 19,4 C 20,6 C 18,4 C 73 % 1011,3 hPa 0,0 l/m 0,47 h 0,00 h 332 W/m 26,3 km/h (4 Bft) 97,72 %
12.10.2019 14:00 19,4 C 21,4 C 18,7 C 73 % 1011,3 hPa 0,0 l/m 0,67 h 0,00 h 400 W/m 25,2 km/h (4 Bft) 97,26 %
12.10.2019 15:00 19,6 C 19,2 C 18,3 C 73 % 1011,4 hPa 0,0 l/m 0,17 h 0,00 h 159 W/m 24,7 km/h (4 Bft) 97,71 %
12.10.2019 16:00 18,8 C 18,1 C 17,4 C 76 % 1011,2 hPa 0,0 l/m 0,07 h 0,00 h 86 W/m 18,4 km/h (3 Bft) 97,86 %
12.10.2019 17:00 18,3 C 17,2 C 16,8 C 78 % 1010,5 hPa 0,0 l/m 0,00 h 0,00 h 28 W/m 9,4 km/h (2 Bft) 94,71 %
12.10.2019 18:00 17,9 C 16,3 C 15,7 C 81 % 1010,3 hPa 0,0 l/m 0,00 h 0,03 h 5 W/m 3,0 km/h (1 Bft) 98,32 %
12.10.2019 19:00 17,6 C 16,9 C 16,4 C 84 % 1010,3 hPa 0,0 l/m 0,00 h 0,00 h 0 W/m 11,6 km/h (2 Bft) 98,00 %
12.10.2019 20:00 17,9 C 17,1 C 16,7 C 84 % 1010,4 hPa 0,0 l/m 0,00 h 0,00 h 0 W/m 6,6 km/h (2 Bft) 95,58 %
12.10.2019 21:00 17,7 C 16,2 C 15,7 C 84 % 1010,5 hPa 0,0 l/m 0,00 h 0,00 h 0 W/m 6,4 km/h (2 Bft) 98,79 %
12.10.2019 22:00 16,9 C 15,6 C 15,2 C 87 % 1010,9 hPa 0,0 l/m 0,00 h 0,00 h 0 W/m 6,7 km/h (2 Bft) 99,07 %
12.10.2019 23:00 16,5 C 15,6 C 15,0 C 89 % 1011,0 hPa 0,0 l/m 0,00 h 0,00 h 0 W/m 9,1 km/h (2 Bft) 94,94 %
13.10.2019 00:00 16,2 C 14,8 C 14,0 C 89 % 1011,1 hPa 0,0 l/m 0,00 h 0,00 h 0 W/m 3,5 km/h (1 Bft) 98,15 %
13.10.2019 01:00 15,8 C 14,4 C 14,0 C 90 % 1010,9 hPa 0,0 l/m 0,00 h 0,00 h 0 W/m 5,4 km/h (1 Bft) 97,79 %
13.10.2019 02:00 15,5 C 14,7 C 14,2 C 93 % 1010,6 hPa 0,0 l/m 0,00 h 0,00 h 0 W/m 8,8 km/h (2 Bft) 96,58 %
13.10.2019 03:00 15,7 C 14,6 C 14,1 C 94 % 1010,3 hPa 0,0 l/m 0,00 h 0,00 h 0 W/m 8,1 km/h (2 Bft) 98,15 %
13.10.2019 04:00 15,2 C 14,0 C 13,6 C 94 % 1009,8 hPa 0,0 l/m 0,00 h 0,00 h 0 W/m 11,3 km/h (2 Bft) 97,44 %
13.10.2019 05:00 15,1 C 14,0 C 13,6 C 96 % 1009,4 hPa 0,0 l/m 0,00 h 0,00 h 0 W/m 12,8 km/h (3 Bft) 97,36 %
13.10.2019 06:00 15,3 C 14,6 C 14,2 C 97 % 1009,4 hPa 0,0 l/m 0,00 h 0,00 h 0 W/m 13,8 km/h (3 Bft) 97,00 %
13.10.2019 07:00 15,7 C 15,0 C 14,4 C 97 % 1009,3 hPa 0,0 l/m 0,00 h 0,10 h 0 W/m 17,1 km/h (3 Bft) 98,24 %
13.10.2019 08:00 16,0 C 14,8 C 14,3 C 97 % 1009,3 hPa 0,6 l/m 0,03 h 0,20 h 26 W/m 17,8 km/h (3 Bft) 97,74 %
13.10.2019 09:00 16,2 C 15,3 C 14,6 C 98 % 1009,7 hPa 0,0 l/m 0,00 h 0,00 h 53 W/m 19,2 km/h (3 Bft) 94,10 %
13.10.2019 10:00 17,3 C 19,2 C 16,7 C 97 % 1009,4 hPa 0,0 l/m 0,47 h 0,03 h 232 W/m 18,0 km/h (3 Bft) 99,43 %
13.10.2019 11:00 18,5 C 19,2 C 17,4 C 91 % 1009,4 hPa 0,0 l/m 0,13 h 0,07 h 168 W/m 20,4 km/h (4 Bft) 96,79 %
13.10.2019 12:00 19,3 C 19,8 C 18,6 C 88 % 1009,3 hPa 0,0 l/m 0,03 h 0,00 h 183 W/m 20,5 km/h (4 Bft) 96,00 %
13.10.2019 13:00 21,2 C 25,8 C 21,8 C 84 % 1008,6 hPa 0,0 l/m 0,90 h 0,00 h 535 W/m 20,1 km/h (4 Bft) 99,57 %
13.10.2019 14:00 23,7 C 28,2 C 22,7 C 76 % 1007,8 hPa 0,0 l/m 1,00 h 0,00 h 489 W/m 18,0 km/h (3 Bft) 97,20 %
13.10.2019 15:00 25,7 C 28,3 C 24,1 C 67 % 1007,1 hPa 0,0 l/m 0,80 h 0,00 h 373 W/m 22,6 km/h (4 Bft) 95,91 %
13.10.2019 16:00 25,0 C 24,1 C 22,9 C 67 % 1007,3 hPa 0,0 l/m 0,00 h 0,00 h 103 W/m 21,0 km/h (4 Bft) 98,39 %
13.10.2019 17:00 24,2 C 23,5 C 22,8 C 70 % 1007,8 hPa 0,0 l/m 0,37 h 0,00 h 80 W/m 20,8 km/h (4 Bft) 98,29 %
13.10.2019 18:00 23,7 C 22,5 C 21,8 C 70 % 1008,1 hPa 0,0 l/m 0,00 h 0,00 h 14 W/m 18,1 km/h (3 Bft) 94,40 %
13.10.2019 19:00 23,1 C 21,5 C 21,0 C 70 % 1008,3 hPa 0,0 l/m 0,00 h 0,00 h 0 W/m 14,6 km/h (3 Bft) 97,15 %
13.10.2019 20:00 22,0 C 20,9 C 20,4 C 73 % 1008,6 hPa 0,0 l/m 0,00 h 0,07 h 0 W/m 15,9 km/h (3 Bft) 99,22 %
13.10.2019 21:00 21,7 C 19,3 C 19,1 C 76 % 1009,6 hPa 0,6 l/m 0,00 h 0,40 h 0 W/m 18,6 km/h (3 Bft) 94,80 %
13.10.2019 22:00 19,2 C 16,7 C 16,2 C 91 % 1010,8 hPa 1,0 l/m 0,00 h 0,67 h 0 W/m 12,0 km/h (2 Bft) 95,94 %
13.10.2019 23:00 18,3 C 16,4 C 16,0 C 95 % 1011,8 hPa 0,2 l/m 0,00 h 0,17 h 0 W/m 8,8 km/h (2 Bft) 99,58 %
Min-Datum _ 07.10.19 07.10.19 07.10.19 13.10.19 09.10.19 - - - - 07.10.19 13.10.19
_ Min-Zeit 03:44 01:18 00:00 15:48 14:58 - - - - 00:08 21:20
Minimum _ 8,2 C 7,2 C 7,2 C 64 % 1005,4 hPa - - - - 0,0 km/h (0 Bft) 44,74 %
Max-Datum _ 13.10.19 13.10.19 13.10.19 07.10.19 07.10.19 08.10.19 10.10.19 08.10.19 10.10.19 11.10.19 07.10.19
_ Max-Zeit 15:44 15:36 13:26 07:12 10:20 04:26 12:08 09:20 13:12 12:44 00:00
Maximum _ 26,2 C 30,0 C 24,4 C 100 % 1019,0 hPa 3,0 l/m 0,07 h 0,08 h 751 W/m 48,3 km/h
S-SO (6 Bft)
100,00 %
Durchschnitt _ 14,2 C 13,8 C 12,9 C 88 % 1011,2 hPa #11,6 l/m #15:54 h #9:05 h 149 W/m 16,5 km/h (3 Bft) 97,45 %
© 2019 W. Hausmann